CW9197 Juva FI current weather conditions

sailwx.info

Wind from 250 at 1 knots gusting 5

Air temperature 13.9° C
Dewpoint 8.1° C

Last reported at 2017-Jun-23 14:55 UTC.
Time now 2017-Jun-23 15:27 UTC

Location: N 61°53' E 027°53'.
View on Google Maps.

See reports from other nearby stations

  
Tides and Currents Weather Stations Pressure Air Temp Water Temp Dewpoint Dewpoint Depression Visibility Wind Speed Wind Dir Waves Ship Positions
date/time (UTC)wind fromknots sea level pressurealtimeterstation pressurevisibilityair tempwater tempwave heightnotes
2017-Jun-23 15:06 278 0 gusting 4 13.9
2017-Jun-23 14:55 250 1 gusting 5 13.9
2017-Jun-23 14:45 250 2 gusting 10 13.9
2017-Jun-23 14:35 300 1 gusting 7 14.4
2017-Jun-23 14:25 262 3 gusting 8 15.0
2017-Jun-23 14:15 283 2 gusting 8 14.4
2017-Jun-23 14:05 300 1 gusting 6 13.9
2017-Jun-23 13:55 266 2 gusting 5 13.3
2017-Jun-23 13:45 332 3 gusting 9 13.3
2017-Jun-23 13:35 278 4 gusting 10 13.3
2017-Jun-23 13:25 339 2 gusting 8 12.8
2017-Jun-23 13:15 318 3 gusting 7 12.8
2017-Jun-23 13:05 286 0 gusting 6 12.8
2017-Jun-23 12:55 283 2 gusting 6 12.2
2017-Jun-23 12:45 315 2 gusting 5 11.7
2017-Jun-23 12:35 321 1 gusting 3 11.7
2017-Jun-23 12:25 357 3 gusting 9 12.2
2017-Jun-23 12:15 340 3 gusting 7 13.3
2017-Jun-23 12:05 332 0 gusting 3 13.3
2017-Jun-23 11:55 337 2 gusting 9 12.8
2017-Jun-23 11:45 336 3 gusting 8 12.2
2017-Jun-23 11:35 342 3 gusting 9 12.2
2017-Jun-23 11:25 314 2 gusting 8 12.8
2017-Jun-23 11:15 343 1 gusting 5 12.2
2017-Jun-23 11:05 342 3 gusting 10 11.7
2017-Jun-23 10:55 332 1 gusting 6 11.7
2017-Jun-23 10:45 351 1 gusting 6 11.7
2017-Jun-23 10:35 333 2 gusting 8 11.7
2017-Jun-23 10:25 302 3 gusting 10 11.7
2017-Jun-23 10:15 340 3 gusting 9 11.1
2017-Jun-23 10:05 350 3 gusting 7 11.1
2017-Jun-23 09:55 346 4 gusting 12 11.7
2017-Jun-23 09:45 326 2 gusting 8 11.7
2017-Jun-23 09:35 321 2 gusting 11 11.1
2017-Jun-23 09:25 315 5 gusting 12 11.7
2017-Jun-23 09:15 359 0 gusting 5 11.1
2017-Jun-23 09:05 349 2 gusting 9 11.1
2017-Jun-23 08:55 352 3 gusting 6 11.1
2017-Jun-23 08:45 349 3 gusting 9 11.1
2017-Jun-23 08:35 341 2 gusting 8 11.1
2017-Jun-23 08:25 316 3 gusting 11 11.7
2017-Jun-23 08:15 322 1 gusting 6 11.1
2017-Jun-23 08:05 344 2 gusting 5 11.7
2017-Jun-23 07:55 336 1 gusting 6 11.7
2017-Jun-23 07:45 291 1 gusting 6 11.1
2017-Jun-23 07:35 286 2 gusting 6 11.1
2017-Jun-23 07:25 334 1 gusting 3 11.1
2017-Jun-23 07:15 295 3 gusting 8 11.1
2017-Jun-23 07:05 333 3 gusting 7 11.1
2017-Jun-23 06:55 323 0 gusting 3 11.1
2017-Jun-23 06:45 338 3 gusting 9 11.7
2017-Jun-23 06:35 293 3 gusting 9 11.7
2017-Jun-23 06:25 288 2 gusting 8 11.7
2017-Jun-23 06:15 311 2 gusting 6 11.1
2017-Jun-23 06:05 337 1 gusting 4 11.1
2017-Jun-23 05:55 016 0 gusting 6 10.6
2017-Jun-23 05:45 355 4 gusting 9 10.6
2017-Jun-23 05:35 004 3 gusting 10 10.6
2017-Jun-23 05:25 350 4 gusting 10 12.2
2017-Jun-23 05:15 358 3 gusting 8 12.8
2017-Jun-23 05:05 327 4 gusting 12 12.2
2017-Jun-23 04:55 327 3 gusting 10 11.7
2017-Jun-23 04:45 340 2 gusting 9 10.6
2017-Jun-23 04:35 354 2 gusting 7 11.1
2017-Jun-23 04:25 002 2 gusting 9 9.4
2017-Jun-23 04:15 005 0 gusting 4 8.9
2017-Jun-23 04:05 343 1 gusting 7 8.9
2017-Jun-23 03:55 341 2 gusting 7 8.9
2017-Jun-23 03:45 330 2 gusting 8 8.3
2017-Jun-23 03:35 327 0 gusting 5 8.3
2017-Jun-23 03:25 317 0 gusting 3 7.8
2017-Jun-23 03:15 293 0 gusting 3 7.8
2017-Jun-23 03:05 306 0 gusting 2 7.2
2017-Jun-23 02:55 295 0 gusting 2 7.2
2017-Jun-23 02:45 275 0 gusting 3 7.2
2017-Jun-23 02:35 258 0 gusting 3 6.7
2017-Jun-23 02:25 278 0 gusting 2 6.7
2017-Jun-23 02:15 274 0 gusting 2 6.7
2017-Jun-23 02:05 282 0 gusting 3 6.7
2017-Jun-23 01:55 277 0 gusting 4 6.7
2017-Jun-23 01:45 275 0 gusting 2 6.1
2017-Jun-23 01:35 292 0 gusting 2 6.1
2017-Jun-23 01:25 299 0 gusting 3 6.1
2017-Jun-23 01:15 311 0 gusting 3 6.1
2017-Jun-23 01:05 312 0 gusting 5 6.1
2017-Jun-23 00:55 310 0 gusting 2 6.1
2017-Jun-23 00:45 306 0 gusting 4 6.1
2017-Jun-23 00:35 322 0 gusting 2 6.1
2017-Jun-23 00:25 337 0 gusting 5 6.1
2017-Jun-22 23:25 324 0 gusting 4 6.7
2017-Jun-22 23:15 309 1 gusting 4 6.7
2017-Jun-22 23:05 319 1 gusting 9 6.7
2017-Jun-22 22:55 344 6.7
2017-Jun-22 22:45 317 0 gusting 2 7.2
2017-Jun-22 22:35 313 0 gusting 2 7.2
2017-Jun-22 22:25 316 1 gusting 4 7.8
2017-Jun-22 22:15 299 1 gusting 3 7.8
2017-Jun-22 22:05 337 1 gusting 6 7.8
2017-Jun-22 21:55 332 1 gusting 5 8.3
2017-Jun-22 21:45 319 0 gusting 4 8.3
2017-Jun-22 21:35 325 1 gusting 6 8.9
2017-Jun-22 21:25 329 1 gusting 7 8.9
2017-Jun-22 21:15 333 1 gusting 5 8.9
2017-Jun-22 21:05 312 1 gusting 5 9.4
2017-Jun-22 20:55 323 0 gusting 4 9.4
2017-Jun-22 20:45 319 0 gusting 3 9.4
2017-Jun-22 20:35 333 0 gusting 3 9.4
2017-Jun-22 20:25 337 1 gusting 6 9.4
2017-Jun-22 20:15 343 1 gusting 6 10.0
2017-Jun-22 20:05 322 0 gusting 6 10.0
2017-Jun-22 19:55 302 10.0
2017-Jun-22 19:45 013 10.0
2017-Jun-22 19:35 017 10.0
2017-Jun-22 19:25 022 0 gusting 6 10.6
2017-Jun-22 19:15 021 0 gusting 3 10.6
2017-Jun-22 19:05 016 1 gusting 4 10.6
2017-Jun-22 18:55 344 1 gusting 6 11.1
2017-Jun-22 18:45 335 0 gusting 3 11.1
2017-Jun-22 18:35 332 1 gusting 6 11.1
2017-Jun-22 18:25 328 1 gusting 5 11.1
2017-Jun-22 18:15 344 1 gusting 6 11.7
2017-Jun-22 18:05 345 1 gusting 6 11.7
2017-Jun-22 17:55 11.7
2017-Jun-22 17:45 014 12.2
2017-Jun-22 17:35 355 0 gusting 3 12.2
2017-Jun-22 17:25 332 2 gusting 6 12.2
2017-Jun-22 17:15 323 0 gusting 3 12.8
2017-Jun-22 17:05 332 1 gusting 6 12.8
2017-Jun-22 16:55 352 2 gusting 8 12.8
2017-Jun-22 16:45 001 1 gusting 5 12.8
2017-Jun-22 16:35 351 2 gusting 6 13.3
2017-Jun-22 16:25 325 2 gusting 8 13.3
2017-Jun-22 16:15 317 3 gusting 6 13.3
2017-Jun-22 16:05 328 3 gusting 8 13.3
2017-Jun-22 15:55 343 5 gusting 10 13.3
2017-Jun-22 15:45 350 2 gusting 7 13.3
2017-Jun-22 15:35 358 4 gusting 8 13.3
2017-Jun-22 15:25 323 2 gusting 6 13.3
2017-Jun-22 15:15 334 2 gusting 8 13.3
2017-Jun-22 15:05 328 2 gusting 7 13.3
2017-Jun-22 14:55 334 4 gusting 9 13.3
2017-Jun-22 14:45 323 5 gusting 13 13.3
2017-Jun-22 14:35 336 4 gusting 9 13.3
2017-Jun-22 14:25 339 6 gusting 12 13.9
2017-Jun-22 14:15 008 3 gusting 12 14.4
2017-Jun-22 14:05 310 2 gusting 7 13.9
2017-Jun-22 13:55 336 4 gusting 12 13.3
2017-Jun-22 13:45 311 4 gusting 10 13.3
2017-Jun-22 13:35 004 4 gusting 10 13.3
2017-Jun-22 13:25 001 2 gusting 7 13.3
2017-Jun-22 13:15 341 3 gusting 9 13.9
2017-Jun-22 13:05 349 3 gusting 10 13.9
2017-Jun-22 12:55 037 0 gusting 3 13.9
2017-Jun-22 12:45 010 3 gusting 8 14.4
2017-Jun-22 12:35 330 4 gusting 10 15.0
2017-Jun-22 12:25 277 3 gusting 12 14.4
2017-Jun-22 12:15 346 4 gusting 10 13.9
2017-Jun-22 12:05 347 4 gusting 12 13.9
2017-Jun-22 11:55 357 6 gusting 13 14.4
2017-Jun-22 11:45 326 4 gusting 13 13.9
2017-Jun-22 11:35 330 5 gusting 12 13.9
2017-Jun-22 11:25 337 3 gusting 9 14.4
2017-Jun-22 11:15 342 3 gusting 11 14.4
2017-Jun-22 11:05 339 5 gusting 14 15.0
2017-Jun-22 10:55 353 1 gusting 6 15.0
2017-Jun-22 10:45 334 3 gusting 9 14.4
2017-Jun-22 10:35 345 4 gusting 10 14.4
2017-Jun-22 10:25 326 2 gusting 8 14.4
2017-Jun-22 10:15 321 5 gusting 13 13.9
2017-Jun-22 10:05 002 4 gusting 10 13.9
2017-Jun-22 09:55 343 4 gusting 15 13.3
2017-Jun-22 09:45 332 4 gusting 13 13.3
2017-Jun-22 09:35 335 4 gusting 10 14.4
2017-Jun-22 09:25 328 6 gusting 14 13.9
2017-Jun-22 09:15 293 4 gusting 13 13.3
2017-Jun-22 09:05 306 4 gusting 13 13.3
2017-Jun-22 08:55 335 3 gusting 7 13.3
2017-Jun-22 08:45 299 4 gusting 15 12.8
2017-Jun-22 08:35 292 5 gusting 13 12.2
2017-Jun-22 08:25 311 3 gusting 8 12.2
2017-Jun-22 08:15 310 3 gusting 10 12.2
2017-Jun-22 08:05 300 3 gusting 8 12.2
2017-Jun-22 07:55 285 1 gusting 5 13.3
2017-Jun-22 07:45 273 1 gusting 6 13.9
2017-Jun-22 07:35 322 2 gusting 10 13.3
2017-Jun-22 07:25 341 2 gusting 6 11.7
2017-Jun-22 07:15 296 1 gusting 6 11.7
2017-Jun-22 07:05 003 1 gusting 6 11.7
2017-Jun-22 06:55 335 0 gusting 5 10.0
2017-Jun-22 06:45 320 3 gusting 7 11.1
2017-Jun-22 06:35 311 3 gusting 9 14.4
2017-Jun-22 06:25 278 2 gusting 6 14.4
2017-Jun-22 06:15 242 3 gusting 6 15.0
2017-Jun-22 06:05 248 2 gusting 7 14.4
2017-Jun-22 05:55 239 1 gusting 4 12.2
2017-Jun-22 05:45 258 1 gusting 4 11.7
2017-Jun-22 05:35 234 1 gusting 5 12.2
2017-Jun-22 05:25 262 2 gusting 5 12.2
2017-Jun-22 05:15 234 1 gusting 4 12.2
2017-Jun-22 05:05 223 1 gusting 5 11.7
2017-Jun-22 04:55 223 0 gusting 3 11.1
2017-Jun-22 04:45 233 0 gusting 2 11.7
2017-Jun-22 04:35 224 0 gusting 2 11.7
2017-Jun-22 04:25 257 0 gusting 2 10.6
2017-Jun-22 04:15 271 0 gusting 4 9.4
2017-Jun-22 04:05 285 8.9
2017-Jun-22 03:55 356 8.9
2017-Jun-22 03:45 298 8.9
2017-Jun-22 03:35 325 8.9
2017-Jun-22 03:25 263 9.4
2017-Jun-22 03:15 256 0 gusting 4 10.0
2017-Jun-22 03:05 266 0 gusting 2 8.9
2017-Jun-22 02:55 292 8.3
2017-Jun-22 02:45 229 8.3
2017-Jun-22 02:35 271 0 gusting 3 8.3
2017-Jun-22 02:25 283 0 gusting 3 7.8
2017-Jun-22 02:15 296 0 gusting 4 7.8
2017-Jun-22 02:05 270 1 gusting 5 7.8
2017-Jun-22 01:55 276 0 gusting 5 7.8
2017-Jun-22 01:45 259 0 gusting 3 7.8
2017-Jun-22 01:35 282 0 gusting 2 7.8
2017-Jun-22 01:25 273 0 gusting 3 7.8
2017-Jun-22 01:15 272 0 gusting 2 7.8
2017-Jun-22 01:05 285 7.8
2017-Jun-22 00:55 280 0 gusting 2 7.8
2017-Jun-22 00:45 273 7.8
2017-Jun-22 00:35 293 7.8
2017-Jun-22 00:25 294 7.8
2017-Jun-22 00:15 304 7.8
2017-Jun-22 00:05 325 7.8
2017-Jun-21 23:55 307 0 gusting 3 7.8
2017-Jun-21 23:45 262 7.8
2017-Jun-21 23:35 273 7.8
2017-Jun-21 23:25 338 7.8
2017-Jun-21 23:15 291 7.8
2017-Jun-21 23:05 311 8.3
2017-Jun-21 22:55 270 8.3
2017-Jun-21 22:45 324 8.3
2017-Jun-21 22:35 315 8.3
2017-Jun-21 22:25 274 7.8
2017-Jun-21 22:15 292 7.8
2017-Jun-21 22:05 340 7.8
2017-Jun-21 21:55 324 7.8
2017-Jun-21 21:45 344 7.8
2017-Jun-21 21:35 339 7.8
2017-Jun-21 21:25 343 7.2
2017-Jun-21 21:15 028 7.2
2017-Jun-21 21:05 359 7.8
2017-Jun-21 20:55 005 7.8
2017-Jun-21 20:45 356 0 gusting 5 8.3
2017-Jun-21 20:35 004 8.3
2017-Jun-21 20:25 351 8.9
2017-Jun-21 20:15 326 0 gusting 2 8.9
2017-Jun-21 20:05 323 1 gusting 3 8.9
2017-Jun-21 19:55 317 1 gusting 6 9.4
2017-Jun-21 19:45 327 1 gusting 6 9.4
2017-Jun-21 19:35 329 1 gusting 3 9.4
2017-Jun-21 19:25 327 0 gusting 2 10.0
2017-Jun-21 19:15 320 1 gusting 4 10.0
2017-Jun-21 19:05 297 0 gusting 4 10.6
2017-Jun-21 18:55 299 0 gusting 4 10.6
2017-Jun-21 18:45 311 1 gusting 6 10.6
2017-Jun-21 18:35 334 1 gusting 6 11.1
2017-Jun-21 18:25 323 1 gusting 6 11.1
2017-Jun-21 18:15 345 3 gusting 7 11.7
2017-Jun-21 18:05 332 3 gusting 11 11.7
2017-Jun-21 17:55 335 3 gusting 9 12.2
2017-Jun-21 17:45 336 4 gusting 10 12.8
2017-Jun-21 17:35 335 5 gusting 13 13.3
2017-Jun-21 17:25 326 4 gusting 13 13.3
2017-Jun-21 17:15 328 4 gusting 14 13.9
2017-Jun-21 17:05 329 5 gusting 17 13.9
2017-Jun-21 16:55 347 5 gusting 13 14.4
2017-Jun-21 16:45 321 3 gusting 9 14.4
2017-Jun-21 16:35 331 6 gusting 16 13.9
2017-Jun-21 16:25 352 6 gusting 16 13.3
2017-Jun-21 16:15 346 3 gusting 10 13.3
2017-Jun-21 16:05 346 3 gusting 8 13.3
2017-Jun-21 15:55 342 4 gusting 12 13.3
2017-Jun-21 15:45 331 5 gusting 13 13.9
2017-Jun-21 15:35 349 5 gusting 12 13.9
2017-Jun-21 15:25 338 5 gusting 15 14.4
2017-Jun-21 15:15 327 5 gusting 13 14.4
2017-Jun-21 15:05 005 5 gusting 16 14.4